Pelican State — WDE4433 — position and weather

sailwx.info

Track history (hours):
 
Tides and Currents Weather Stations Pressure Air Temp Water Temp Dewpoint Dewpoint Depression Visibility Wind Speed Wind Dir Waves Ship Positions

Pelican State

Owner: Crowley Petroleum Serives, Jacksonville, FL. More information available from US FCC via Universal Licensing System and Coast Guard Vessel Documentation Center.

Last reported at 2017-Nov-18 04:04 UTC. Time now 2017-Nov-18 14:12 UTC.
Position N 48°16' W 125°14'.

Length 183 m; draft 10.1 m.

Type: Tanker. MMSI: 367353110.

Date/timePositionNaut miles runAvg speedWind from/ knotsBaromVisibWave heightAir tempDewpointWater temp
2017-Nov-18 04:04N 48°16' W 125°14'110.5
2017-Nov-18 03:59N 48°17' W 125°14'610.9
2017-Nov-18 03:27N 48°22' W 125°10'610.9
2017-Nov-18 02:55N 48°27' W 125°05'410.5
2017-Nov-18 02:30N 48°30' W 125°01'611.2
2017-Nov-18 02:00N 48°31' W 124°52'611.5
2017-Nov-18 01:30N 48°31' W 124°44'611.4
2017-Nov-18 01:00N 48°29' W 124°36'611.8
2017-Nov-18 00:30N 48°26' W 124°28'611.0
2017-Nov-18 00:00N 48°24' W 124°20'511.0
2017-Nov-17 23:30N 48°22' W 124°12'611.4
2017-Nov-17 23:00N 48°20' W 124°04'611.3
2017-Nov-17 22:30N 48°18' W 123°57'510.8
2017-Nov-17 22:00N 48°17' W 123°49'5 9.7
2017-Nov-17 21:30N 48°16' W 123°41'4 9.1
2017-Nov-17 21:00N 48°15' W 123°35'5 9.4
2017-Nov-17 20:30N 48°14' W 123°28'2 3.4
2017-Nov-17 20:00N 48°13' W 123°25'4 8.2
2017-Nov-17 19:30N 48°09' W 123°23'2 4.6
2017-Nov-17 18:59N 48°08' W 123°26'0 0.2
2017-Nov-17 18:29N 48°08' W 123°26'0 0.0
2017-Nov-17 17:56N 48°08' W 123°26'0 0.1
2017-Nov-17 17:29N 48°08' W 123°26'0 0.1
2017-Nov-17 16:59N 48°08' W 123°26'0 0.1
2017-Nov-17 16:26N 48°08' W 123°26'0 0.1
2017-Nov-17 15:59N 48°08' W 123°26'0 0.0
2017-Nov-17 15:23N 48°08' W 123°26'0 0.0
2017-Nov-17 14:59N 48°08' W 123°26'0 0.0
2017-Nov-17 14:29N 48°08' W 123°26'0 0.0
2017-Nov-17 13:56N 48°08' W 123°26'0 0.0
2017-Nov-17 13:23N 48°08' W 123°26'0 0.0
2017-Nov-17 12:59N 48°08' W 123°26'0 0.0
2017-Nov-17 12:29N 48°08' W 123°26'0 0.0
2017-Nov-17 11:59N 48°08' W 123°26'0 0.0
2017-Nov-17 11:29N 48°08' W 123°26'0 0.0
2017-Nov-17 10:59N 48°08' W 123°26'0 0.1
2017-Nov-17 10:29N 48°08' W 123°26'0 0.1
2017-Nov-17 09:56N 48°08' W 123°26'0 0.1
2017-Nov-17 09:29N 48°08' W 123°26'0 0.0
2017-Nov-17 08:59N 48°08' W 123°26'1 1.7
2017-Nov-17 08:30N 48°08' W 123°25'4 7.5
2017-Nov-17 07:59N 48°09' W 123°19'511.1
2017-Nov-17 07:30N 48°12' W 123°13'612.6
2017-Nov-17 07:00N 48°17' W 123°06'612.8
2017-Nov-17 06:30N 48°21' W 122°58'612.6
2017-Nov-17 06:00N 48°24' W 122°50'510.8
2017-Nov-17 05:30N 48°28' W 122°45'713.9
2017-Nov-17 05:00N 48°35' W 122°45'713.2
2017-Nov-17 04:30N 48°41' W 122°44'612.5
2017-Nov-17 04:00N 48°48' W 122°46'4 8.3
2017-Nov-17 03:30N 48°52' W 122°46'1 0.0
2017-Nov-16 02:04N 48°51' W 122°45'0 2.6
2017-Nov-16 02:00N 48°51' W 122°45'5 7.7
2017-Nov-16 01:21N 48°46' W 122°46'410.6
2017-Nov-16 01:00N 48°43' W 122°44'510.3
2017-Nov-16 00:30N 48°39' W 122°39'4 8.2
2017-Nov-16 00:00N 48°36' W 122°34'0 0.1
2017-Nov-15 23:30N 48°36' W 122°34'0 0.0
2017-Nov-15 21:42N 48°36' W 122°34'0 0.0
2017-Nov-15 21:12N 48°36' W 122°34'0 0.0
2017-Nov-15 21:00N 48°36' W 122°34'0 0.0
2017-Nov-15 20:16N 48°36' W 122°34'0 0.0
2017-Nov-15 19:57N 48°36' W 122°34'0 0.0
2017-Nov-15 19:18N 48°36' W 122°34'0 0.0
2017-Nov-15 19:00N 48°36' W 122°34'0 0.0
2017-Nov-15 18:18N 48°36' W 122°34'0 0.1
2017-Nov-15 18:00N 48°36' W 122°34'0 0.1
2017-Nov-15 17:24N 48°36' W 122°34'0 0.1
2017-Nov-15 16:54N 48°36' W 122°34'0 0.0
2017-Nov-15 16:30N 48°36' W 122°34'0 0.6
2017-Nov-15 16:00N 48°36' W 122°35'3 6.2
2017-Nov-15 15:30N 48°38' W 122°39'510.6
2017-Nov-15 15:00N 48°42' W 122°44'510.4
2017-Nov-15 14:29N 48°47' W 122°46'4 7.6
2017-Nov-15 14:00N 48°51' W 122°47'4 7.5
2017-Nov-15 13:29N 48°47' W 122°46'510.5
2017-Nov-15 13:00N 48°42' W 122°43'510.1
2017-Nov-15 12:30N 48°38' W 122°39'4 4.6
2017-Nov-15 11:44N 48°36' W 122°34'0 0.1
2017-Nov-15 11:20N 48°36' W 122°34'0 0.0
2017-Nov-15 10:50N 48°36' W 122°34'0 0.0
2017-Nov-15 10:29N 48°36' W 122°34'0 0.0
2017-Nov-15 09:59N 48°36' W 122°34'0 0.0
2017-Nov-15 09:02N 48°36' W 122°34'0 0.0
2017-Nov-15 08:44N 48°36' W 122°34'0 0.2
2017-Nov-15 08:29N 48°36' W 122°34'0 0.0
2017-Nov-15 07:56N 48°36' W 122°34'0 0.0
2017-Nov-15 07:26N 48°36' W 122°34'0 0.0
2017-Nov-15 06:23N 48°36' W 122°34'0 0.1
2017-Nov-15 05:59N 48°36' W 122°34'0 0.1
2017-Nov-15 05:26N 48°36' W 122°34'0 0.0
2017-Nov-15 04:56N 48°36' W 122°34'0 0.1
2017-Nov-15 04:08N 48°36' W 122°34'0 0.2
2017-Nov-15 03:53N 48°36' W 122°34'0 0.0
2017-Nov-15 03:14N 48°36' W 122°34'0 0.0
2017-Nov-15 02:11N 48°36' W 122°34'0 0.0
2017-Nov-15 01:56N 48°36' W 122°34'0 0.0
2017-Nov-15 01:20N 48°36' W 122°34'0 0.0
2017-Nov-15 00:59N 48°36' W 122°34'0 0.0
2017-Nov-15 00:26N 48°36' W 122°34'0 0.0
2017-Nov-14 21:44N 48°36' W 122°34'0 0.1
2017-Nov-14 21:20N 48°36' W 122°34'0 0.0
2017-Nov-14 20:14N 48°36' W 122°34'0 0.1
2017-Nov-14 19:50N 48°36' W 122°34'0 0.0
2017-Nov-14 19:14N 48°36' W 122°34'0 0.0
2017-Nov-14 18:32N 48°36' W 122°34'0 0.2
2017-Nov-14 18:20N 48°36' W 122°34'0 0.1
2017-Nov-14 17:56N 48°36' W 122°34'0 0.0
2017-Nov-14 15:50N 48°36' W 122°34'0 0.1
2017-Nov-14 15:26N 48°36' W 122°34'0 0.0
2017-Nov-14 14:44N 48°36' W 122°34'0 0.1
2017-Nov-14 14:14N 48°36' W 122°34'0 0.1
2017-Nov-14 13:50N 48°36' W 122°34'0 0.0
2017-Nov-14 13:14N 48°36' W 122°34'0 0.0
2017-Nov-14 12:59N 48°36' W 122°34'0 0.0
2017-Nov-14 12:14N 48°36' W 122°34'0 0.0
2017-Nov-14 11:38N 48°36' W 122°34'0 0.0
2017-Nov-14 11:26N 48°36' W 122°34'0 0.1
2017-Nov-14 10:56N 48°36' W 122°34'0 0.0
2017-Nov-14 10:26N 48°36' W 122°34'0 0.0
2017-Nov-14 09:44N 48°36' W 122°34'0 0.1
2017-Nov-14 09:02N 48°36' W 122°34'0 0.0
2017-Nov-14 07:50N 48°36' W 122°34'0 0.0
2017-Nov-14 06:23N 48°36' W 122°34'0 0.2
2017-Nov-14 05:56N 48°36' W 122°34'0 0.1
2017-Nov-14 05:08N 48°36' W 122°34'0 0.2
2017-Nov-14 04:56N 48°36' W 122°34'0 0.0
2017-Nov-14 04:26N 48°36' W 122°34'0 0.1
2017-Nov-14 03:56N 48°36' W 122°34'0 0.2
2017-Nov-14 03:26N 48°36' W 122°34'0 0.0
2017-Nov-14 02:56N 48°36' W 122°34'0 0.0
2017-Nov-14 02:26N 48°36' W 122°34'0 0.1
2017-Nov-14 01:50N 48°36' W 122°34'0 0.1
2017-Nov-14 01:26N 48°36' W 122°34'0 0.1
2017-Nov-14 00:56N 48°36' W 122°34'0 0.0
2017-Nov-13 22:56N 48°36' W 122°34'0 0.1
2017-Nov-13 22:26N 48°36' W 122°34'0 0.0
2017-Nov-13 21:50N 48°36' W 122°34'25 1.3
2017-Nov-13 02:00N 48°19' W 123°01'713.5
2017-Nov-13 01:29N 48°15' W 123°10'612.8
2017-Nov-13 01:01N 48°11' W 123°17'611.5
2017-Nov-13 00:30N 48°08' W 123°24'1 1.4
2017-Nov-13 00:00N 48°08' W 123°25'0 0.0
2017-Nov-12 22:20N 48°08' W 123°25'0 0.0
2017-Nov-12 21:47N 48°08' W 123°25'0 0.0
2017-Nov-12 21:20N 48°08' W 123°25'0 0.0
2017-Nov-12 19:35N 48°08' W 123°25'0 0.2
2017-Nov-12 19:20N 48°08' W 123°25'0 0.0
2017-Nov-12 18:53N 48°08' W 123°25'0 0.0
2017-Nov-12 16:53N 48°08' W 123°25'0 0.0
2017-Nov-12 16:11N 48°08' W 123°25'0 0.0
2017-Nov-12 15:50N 48°08' W 123°25'0 0.2
2017-Nov-12 15:26N 48°08' W 123°25'0 0.2
2017-Nov-12 14:42N 48°08' W 123°25'0 0.6
2017-Nov-12 14:30N 48°08' W 123°25'2 4.2
2017-Nov-12 14:00N 48°09' W 123°22'4 7.7
2017-Nov-12 13:30N 48°11' W 123°27'5 9.6
2017-Nov-12 13:00N 48°13' W 123°34'510.0
2017-Nov-12 12:30N 48°13' W 123°41'510.1
2017-Nov-12 12:00N 48°13' W 123°49'5 9.9
2017-Nov-12 11:30N 48°13' W 123°56'510.3
2017-Nov-12 11:00N 48°15' W 124°03'510.9
2017-Nov-12 10:30N 48°18' W 124°10'612.5
2017-Nov-12 10:00N 48°20' W 124°19'713.1
2017-Nov-12 09:30N 48°23' W 124°28'713.2
2017-Nov-12 09:00N 48°26' W 124°37'713.5
2017-Nov-12 08:30N 48°29' W 124°46'713.8
2017-Nov-12 08:00N 48°29' W 124°57'612.9
2017-Nov-12 07:30N 48°24' W 125°03'714.9
2017-Nov-12 07:00N 48°18' W 125°09'914.5
2017-Nov-12 06:23N 48°10' W 125°15'10112.4
2017-Nov-11 22:17N 46°29' W 125°16'413.5
2017-Nov-11 22:00N 46°27' W 125°12'612.1
2017-Nov-11 21:31N 46°24' W 125°04'3 5.3
2017-Nov-11 21:00N 46°23' W 125°01'612.9
2017-Nov-11 20:30N 46°20' W 124°53'714.3
2017-Nov-11 20:00N 46°17' W 124°44'714.3
2017-Nov-11 19:31N 46°13' W 124°35'714.0
2017-Nov-11 19:00N 46°11' W 124°25'713.9
2017-Nov-11 18:30N 46°11' W 124°15'4 8.1
2017-Nov-11 18:01N 46°12' W 124°10'612.5
2017-Nov-11 17:31N 46°16' W 124°02'713.9
2017-Nov-11 17:00N 46°11' W 123°54'5 9.0
2017-Nov-11 16:30N 46°12' W 123°48'611.8
2017-Nov-11 16:00N 46°15' W 123°40'612.6
2017-Nov-11 15:30N 46°16' W 123°31'710.0
2017-Nov-11 14:47N 46°10' W 123°25'410.7
2017-Nov-11 14:22N 46°09' W 123°19'513.4
2017-Nov-11 14:00N 46°10' W 123°12'612.6
2017-Nov-11 13:30N 46°09' W 123°03'612.8
2017-Nov-11 13:01N 46°06' W 122°56'611.7
2017-Nov-11 12:30N 46°01' W 122°51'611.8
2017-Nov-11 12:01N 45°55' W 122°48'612.7
2017-Nov-11 11:30N 45°49' W 122°48'713.8
2017-Nov-11 11:00N 45°42' W 122°46'5 9.4
2017-Nov-11 10:30N 45°38' W 122°48'4 7.4
2017-Nov-11 10:01N 45°34' W 122°45'0 0.4
2017-Nov-11 08:43N 45°34' W 122°44'0 0.0
2017-Nov-11 08:01N 45°34' W 122°44'0 0.0
2017-Nov-11 07:58N 45°34' W 122°44'0 0.0
2017-Nov-11 07:19N 45°34' W 122°44'0 0.0
2017-Nov-11 06:55N 45°34' W 122°44'0 0.0
2017-Nov-11 06:28N 45°34' W 122°44'0 0.0
2017-Nov-11 05:52N 45°34' W 122°44'0 0.0
2017-Nov-11 05:28N 45°34' W 122°44'0 0.0
2017-Nov-11 04:55N 45°34' W 122°44'0 0.0
2017-Nov-11 04:25N 45°34' W 122°44'0 0.0
2017-Nov-11 03:43N 45°34' W 122°44'0 0.0
2017-Nov-11 03:25N 45°34' W 122°44'0 0.0
2017-Nov-11 02:55N 45°34' W 122°44'0 0.0
2017-Nov-11 02:25N 45°34' W 122°44'0 0.0
2017-Nov-11 01:19N 45°34' W 122°44'0 0.0
2017-Nov-11 00:46N 45°34' W 122°44'0 0.0
2017-Nov-11 00:22N 45°34' W 122°44'0 0.0
2017-Nov-10 23:55N 45°34' W 122°44'0 0.0
2017-Nov-10 23:22N 45°34' W 122°44'0 0.0
2017-Nov-10 22:52N 45°34' W 122°44'0 0.0
2017-Nov-10 22:28N 45°34' W 122°44'0 0.0
2017-Nov-10 21:31N 45°34' W 122°44'0 0.0
2017-Nov-10 21:25N 45°34' W 122°44'0 0.0
2017-Nov-10 20:55N 45°34' W 122°44'0 0.0
2017-Nov-10 20:28N 45°34' W 122°44'0 0.0
2017-Nov-10 19:49N 45°34' W 122°44'0 0.0
2017-Nov-10 19:25N 45°34' W 122°44'0 0.0
2017-Nov-10 18:58N 45°34' W 122°44'0 0.0
2017-Nov-10 17:55N 45°34' W 122°44'0 0.0
2017-Nov-10 17:19N 45°34' W 122°44'0 0.0
2017-Nov-10 16:55N 45°34' W 122°44'0 0.0
2017-Nov-10 15:55N 45°34' W 122°44'0 0.0
2017-Nov-10 15:13N 45°34' W 122°44'0 0.0
2017-Nov-10 14:49N 45°34' W 122°44'0 0.0
2017-Nov-10 14:25N 45°34' W 122°44'0 0.0
2017-Nov-10 13:49N 45°34' W 122°44'0 0.0
2017-Nov-10 13:19N 45°34' W 122°44'0 0.0
2017-Nov-10 12:55N 45°34' W 122°44'0 0.0
2017-Nov-10 12:25N 45°34' W 122°44'0 0.3
2017-Nov-10 12:01N 45°34' W 122°44'2 3.3
2017-Nov-10 11:30N 45°35' W 122°46'3 6.7
2017-Nov-10 11:00N 45°38' W 122°47'3 5.3
2017-Nov-10 10:31N 45°38' W 122°43'1 0.7
2017-Nov-10 09:40N 45°38' W 122°42'0 0.0
2017-Nov-10 09:28N 45°38' W 122°42'0 0.0
2017-Nov-10 08:55N 45°38' W 122°42'0 0.0
2017-Nov-10 08:25N 45°38' W 122°42'0 0.0
2017-Nov-10 07:58N 45°38' W 122°42'0 0.0
2017-Nov-10 07:28N 45°38' W 122°42'0 0.0
2017-Nov-10 06:52N 45°38' W 122°42'0 0.0
2017-Nov-10 06:22N 45°38' W 122°42'0 0.0
2017-Nov-10 05:58N 45°38' W 122°42'0 0.0
2017-Nov-10 05:22N 45°38' W 122°42'0 0.0
2017-Nov-10 04:46N 45°38' W 122°42'0 0.0
2017-Nov-10 04:28N 45°38' W 122°42'0 0.0
2017-Nov-10 03:55N 45°38' W 122°42'0 0.0
2017-Nov-10 03:16N 45°38' W 122°42'0 0.0
2017-Nov-10 02:55N 45°38' W 122°42'0 0.0
2017-Nov-10 02:07N 45°38' W 122°42'0 0.0
2017-Nov-10 01:37N 45°38' W 122°42'0 0.0
2017-Nov-10 01:25N 45°38' W 122°42'0 0.0
2017-Nov-10 00:46N 45°38' W 122°42'0 0.0
2017-Nov-10 00:28N 45°38' W 122°42'0 0.0
2017-Nov-09 23:58N 45°38' W 122°42'0 0.0
2017-Nov-09 23:28N 45°38' W 122°42'0 0.0
2017-Nov-09 22:49N 45°38' W 122°42'0 0.0
2017-Nov-09 22:28N 45°38' W 122°42'0 0.0
2017-Nov-09 21:52N 45°38' W 122°42'0 0.0
2017-Nov-09 21:25N 45°38' W 122°42'0 0.0
2017-Nov-09 20:58N 45°38' W 122°42'0 0.0
2017-Nov-09 20:28N 45°38' W 122°42'0 0.0
2017-Nov-09 19:58N 45°38' W 122°42'0 0.0
2017-Nov-09 19:28N 45°38' W 122°42'0 0.0
2017-Nov-09 18:58N 45°38' W 122°42'0 0.0
2017-Nov-09 18:22N 45°38' W 122°42'0 0.0
2017-Nov-09 17:52N 45°38' W 122°42'0 0.0
2017-Nov-09 17:28N 45°38' W 122°42'0 0.0
2017-Nov-09 16:58N 45°38' W 122°42'0 0.0
2017-Nov-09 16:28N 45°38' W 122°42'0 0.0
2017-Nov-09 15:58N 45°38' W 122°42'0 0.0
2017-Nov-09 15:28N 45°38' W 122°42'0 0.0
2017-Nov-09 14:55N 45°38' W 122°42'0 0.0
2017-Nov-09 14:28N 45°38' W 122°42'0 0.0
2017-Nov-09 13:46N 45°38' W 122°42'0 0.0
2017-Nov-09 13:19N 45°38' W 122°42'0 0.0
2017-Nov-09 12:49N 45°38' W 122°42'0 0.0
2017-Nov-09 12:10N 45°38' W 122°42'0 0.0
2017-Nov-09 11:58N 45°38' W 122°42'0 0.0
2017-Nov-09 11:19N 45°38' W 122°42'0 0.0
2017-Nov-09 10:58N 45°38' W 122°42'0 0.0
2017-Nov-09 10:19N 45°38' W 122°42'0 0.0
2017-Nov-09 09:58N 45°38' W 122°42'0 0.0
2017-Nov-09 09:16N 45°38' W 122°42'0 0.0
2017-Nov-09 08:58N 45°38' W 122°42'0 0.0
2017-Nov-09 08:16N 45°38' W 122°42'0 0.0
2017-Nov-09 07:55N 45°38' W 122°42'0 0.0
2017-Nov-09 07:22N 45°38' W 122°42'0 0.0
2017-Nov-09 06:55N 45°38' W 122°42'0 0.0
2017-Nov-09 06:25N 45°38' W 122°42'0 0.0
2017-Nov-09 05:40N 45°38' W 122°42'0 0.0
2017-Nov-09 05:25N 45°38' W 122°42'0 0.0
2017-Nov-09 04:58N 45°38' W 122°42'0 0.0
2017-Nov-09 04:28N 45°38' W 122°42'0 0.0
2017-Nov-09 03:52N 45°38' W 122°42'0 0.0
2017-Nov-09 03:28N 45°38' W 122°42'0 0.0
2017-Nov-09 02:58N 45°38' W 122°42'0 0.0
2017-Nov-09 02:25N 45°38' W 122°42'0 0.0
2017-Nov-09 01:52N 45°38' W 122°42'0 0.0
2017-Nov-09 01:28N 45°38' W 122°42'0 0.0
2017-Nov-09 00:19N 45°38' W 122°42'0 0.0
2017-Nov-08 23:52N 45°38' W 122°42'0 0.0
2017-Nov-08 23:26N 45°38' W 122°42'0 0.3
2017-Nov-08 23:00N 45°38' W 122°42'3 5.2
2017-Nov-08 22:30N 45°39' W 122°46'4 7.3
2017-Nov-08 22:00N 45°36' W 122°47'2 4.6
2017-Nov-08 21:30N 45°34' W 122°44'0 0.3
2017-Nov-08 21:00N 45°34' W 122°44'0 0.0
2017-Nov-08 20:30N 45°34' W 122°44'0 0.0
2017-Nov-08 19:58N 45°34' W 122°44'0 0.0
2017-Nov-08 19:25N 45°34' W 122°44'0 0.0
2017-Nov-08 18:58N 45°34' W 122°44'0 0.0
2017-Nov-08 18:07N 45°34' W 122°44'0 0.0
2017-Nov-08 17:58N 45°34' W 122°44'0 0.0
2017-Nov-08 17:28N 45°34' W 122°44'0 0.0
2017-Nov-08 16:58N 45°34' W 122°44'0 0.0
2017-Nov-08 16:25N 45°34' W 122°44'0 0.0
2017-Nov-08 15:58N 45°34' W 122°44'0 0.0
2017-Nov-08 15:25N 45°34' W 122°44'0 0.0
2017-Nov-08 14:55N 45°34' W 122°44'0 0.0
2017-Nov-08 14:01N 45°34' W 122°44'0 0.1
2017-Nov-08 13:55N 45°34' W 122°44'0 0.0
2017-Nov-08 13:16N 45°34' W 122°44'0 0.0
2017-Nov-08 12:58N 45°34' W 122°44'0 0.0
2017-Nov-08 12:25N 45°34' W 122°44'0 0.0
2017-Nov-08 11:55N 45°34' W 122°44'0 0.0
2017-Nov-08 11:19N 45°34' W 122°44'0 0.0
2017-Nov-08 10:58N 45°34' W 122°44'0 0.0
2017-Nov-08 10:25N 45°34' W 122°44'0 0.0
2017-Nov-08 09:52N 45°34' W 122°44'0 0.0
2017-Nov-08 09:28N 45°34' W 122°44'0 0.0
2017-Nov-08 08:52N 45°34' W 122°44'0 0.0
2017-Nov-08 08:25N 45°34' W 122°44'0 0.0
2017-Nov-08 07:52N 45°34' W 122°44'0 0.0
2017-Nov-08 07:28N 45°34' W 122°44'0 0.0
2017-Nov-08 06:55N 45°34' W 122°44'0 0.0
2017-Nov-08 06:16N 45°34' W 122°44'0 0.0
2017-Nov-08 05:58N 45°34' W 122°44'0 0.0
2017-Nov-08 05:22N 45°34' W 122°44'0 0.0
2017-Nov-08 04:58N 45°34' W 122°44'0 0.1
2017-Nov-08 04:30N 45°34' W 122°44'  
Track history (hours):
 
Tides and Currents Weather Stations Pressure Air Temp Water Temp Dewpoint Dewpoint Depression Visibility Wind Speed Wind Dir Waves Ship Positions

Pelican State

Owner: Crowley Petroleum Serives, Jacksonville, FL. More information available from US FCC via Universal Licensing System and Coast Guard Vessel Documentation Center.

Last reported at 2017-Nov-18 04:04 UTC. Time now 2017-Nov-18 14:12 UTC.
Position N 48°16' W 125°14'.

Length 183 m; draft 10.1 m.

Type: Tanker. MMSI: 367353110.

Date/timePositionNaut miles runAvg speedWind from/ knotsBaromVisibWave heightAir tempDewpointWater temp
2017-Nov-18 04:04N 48°16' W 125°14'110.5
2017-Nov-18 03:59N 48°17' W 125°14'610.9
2017-Nov-18 03:27N 48°22' W 125°10'610.9
2017-Nov-18 02:55N 48°27' W 125°05'410.5
2017-Nov-18 02:30N 48°30' W 125°01'611.2
2017-Nov-18 02:00N 48°31' W 124°52'611.5
2017-Nov-18 01:30N 48°31' W 124°44'611.4
2017-Nov-18 01:00N 48°29' W 124°36'611.8
2017-Nov-18 00:30N 48°26' W 124°28'611.0
2017-Nov-18 00:00N 48°24' W 124°20'511.0
2017-Nov-17 23:30N 48°22' W 124°12'611.4
2017-Nov-17 23:00N 48°20' W 124°04'611.3
2017-Nov-17 22:30N 48°18' W 123°57'510.8
2017-Nov-17 22:00N 48°17' W 123°49'5 9.7
2017-Nov-17 21:30N 48°16' W 123°41'4 9.1
2017-Nov-17 21:00N 48°15' W 123°35'5 9.4
2017-Nov-17 20:30N 48°14' W 123°28'2 3.4
2017-Nov-17 20:00N 48°13' W 123°25'4 8.2
2017-Nov-17 19:30N 48°09' W 123°23'2 4.6
2017-Nov-17 18:59N 48°08' W 123°26'0 0.2
2017-Nov-17 18:29N 48°08' W 123°26'0 0.0
2017-Nov-17 17:56N 48°08' W 123°26'0 0.1
2017-Nov-17 17:29N 48°08' W 123°26'0 0.1
2017-Nov-17 16:59N 48°08' W 123°26'0 0.1
2017-Nov-17 16:26N 48°08' W 123°26'0 0.1
2017-Nov-17 15:59N 48°08' W 123°26'0 0.0
2017-Nov-17 15:23N 48°08' W 123°26'0 0.0
2017-Nov-17 14:59N 48°08' W 123°26'0 0.0
2017-Nov-17 14:29N 48°08' W 123°26'0 0.0
2017-Nov-17 13:56N 48°08' W 123°26'0 0.0
2017-Nov-17 13:23N 48°08' W 123°26'0 0.0
2017-Nov-17 12:59N 48°08' W 123°26'0 0.0
2017-Nov-17 12:29N 48°08' W 123°26'0 0.0
2017-Nov-17 11:59N 48°08' W 123°26'0 0.0
2017-Nov-17 11:29N 48°08' W 123°26'0 0.0
2017-Nov-17 10:59N 48°08' W 123°26'0 0.1
2017-Nov-17 10:29N 48°08' W 123°26'0 0.1
2017-Nov-17 09:56N 48°08' W 123°26'0 0.1
2017-Nov-17 09:29N 48°08' W 123°26'0 0.0
2017-Nov-17 08:59N 48°08' W 123°26'1 1.7
2017-Nov-17 08:30N 48°08' W 123°25'4 7.5
2017-Nov-17 07:59N 48°09' W 123°19'511.1
2017-Nov-17 07:30N 48°12' W 123°13'612.6
2017-Nov-17 07:00N 48°17' W 123°06'612.8
2017-Nov-17 06:30N 48°21' W 122°58'612.6
2017-Nov-17 06:00N 48°24' W 122°50'510.8
2017-Nov-17 05:30N 48°28' W 122°45'713.9
2017-Nov-17 05:00N 48°35' W 122°45'713.2
2017-Nov-17 04:30N 48°41' W 122°44'612.5
2017-Nov-17 04:00N 48°48' W 122°46'4 8.3
2017-Nov-17 03:30N 48°52' W 122°46'1 0.0
2017-Nov-16 02:04N 48°51' W 122°45'0 2.6
2017-Nov-16 02:00N 48°51' W 122°45'5 7.7
2017-Nov-16 01:21N 48°46' W 122°46'410.6
2017-Nov-16 01:00N 48°43' W 122°44'510.3
2017-Nov-16 00:30N 48°39' W 122°39'4 8.2
2017-Nov-16 00:00N 48°36' W 122°34'0 0.1
2017-Nov-15 23:30N 48°36' W 122°34'0 0.0
2017-Nov-15 21:42N 48°36' W 122°34'0 0.0
2017-Nov-15 21:12N 48°36' W 122°34'0 0.0
2017-Nov-15 21:00N 48°36' W 122°34'0 0.0
2017-Nov-15 20:16N 48°36' W 122°34'0 0.0
2017-Nov-15 19:57N 48°36' W 122°34'0 0.0
2017-Nov-15 19:18N 48°36' W 122°34'0 0.0
2017-Nov-15 19:00N 48°36' W 122°34'0 0.0
2017-Nov-15 18:18N 48°36' W 122°34'0 0.1
2017-Nov-15 18:00N 48°36' W 122°34'0 0.1
2017-Nov-15 17:24N 48°36' W 122°34'0 0.1
2017-Nov-15 16:54N 48°36' W 122°34'0 0.0
2017-Nov-15 16:30N 48°36' W 122°34'0 0.6
2017-Nov-15 16:00N 48°36' W 122°35'3 6.2
2017-Nov-15 15:30N 48°38' W 122°39'510.6
2017-Nov-15 15:00N 48°42' W 122°44'510.4
2017-Nov-15 14:29N 48°47' W 122°46'4 7.6
2017-Nov-15 14:00N 48°51' W 122°47'4 7.5
2017-Nov-15 13:29N 48°47' W 122°46'510.5
2017-Nov-15 13:00N 48°42' W 122°43'510.1
2017-Nov-15 12:30N 48°38' W 122°39'4 4.6
2017-Nov-15 11:44N 48°36' W 122°34'0 0.1
2017-Nov-15 11:20N 48°36' W 122°34'0 0.0
2017-Nov-15 10:50N 48°36' W 122°34'0 0.0
2017-Nov-15 10:29N 48°36' W 122°34'0 0.0
2017-Nov-15 09:59N 48°36' W 122°34'0 0.0
2017-Nov-15 09:02N 48°36' W 122°34'0 0.0
2017-Nov-15 08:44N 48°36' W 122°34'0 0.2
2017-Nov-15 08:29N 48°36' W 122°34'0 0.0
2017-Nov-15 07:56N 48°36' W 122°34'0 0.0
2017-Nov-15 07:26N 48°36' W 122°34'0 0.0
2017-Nov-15 06:23N 48°36' W 122°34'0 0.1
2017-Nov-15 05:59N 48°36' W 122°34'0 0.1
2017-Nov-15 05:26N 48°36' W 122°34'0 0.0
2017-Nov-15 04:56N 48°36' W 122°34'0 0.1
2017-Nov-15 04:08N 48°36' W 122°34'0 0.2
2017-Nov-15 03:53N 48°36' W 122°34'0 0.0
2017-Nov-15 03:14N 48°36' W 122°34'0 0.0
2017-Nov-15 02:11N 48°36' W 122°34'0 0.0
2017-Nov-15 01:56N 48°36' W 122°34'0 0.0
2017-Nov-15 01:20N 48°36' W 122°34'0 0.0
2017-Nov-15 00:59N 48°36' W 122°34'0 0.0
2017-Nov-15 00:26N 48°36' W 122°34'0 0.0
2017-Nov-14 21:44N 48°36' W 122°34'0 0.1
2017-Nov-14 21:20N 48°36' W 122°34'0 0.0
2017-Nov-14 20:14N 48°36' W 122°34'0 0.1
2017-Nov-14 19:50N 48°36' W 122°34'0 0.0
2017-Nov-14 19:14N 48°36' W 122°34'0 0.0
2017-Nov-14 18:32N 48°36' W 122°34'0 0.2
2017-Nov-14 18:20N 48°36' W 122°34'0 0.1
2017-Nov-14 17:56N 48°36' W 122°34'0 0.0
2017-Nov-14 15:50N 48°36' W 122°34'0 0.1
2017-Nov-14 15:26N 48°36' W 122°34'0 0.0
2017-Nov-14 14:44N 48°36' W 122°34'0 0.1
2017-Nov-14 14:14N 48°36' W 122°34'0 0.1
2017-Nov-14 13:50N 48°36' W 122°34'0 0.0
2017-Nov-14 13:14N 48°36' W 122°34'0 0.0
2017-Nov-14 12:59N 48°36' W 122°34'0 0.0
2017-Nov-14 12:14N 48°36' W 122°34'0 0.0
2017-Nov-14 11:38N 48°36' W 122°34'0 0.0
2017-Nov-14 11:26N 48°36' W 122°34'0 0.1
2017-Nov-14 10:56N 48°36' W 122°34'0 0.0
2017-Nov-14 10:26N 48°36' W 122°34'0 0.0
2017-Nov-14 09:44N 48°36' W 122°34'0 0.1
2017-Nov-14 09:02N 48°36' W 122°34'0 0.0
2017-Nov-14 07:50N 48°36' W 122°34'0 0.0
2017-Nov-14 06:23N 48°36' W 122°34'0 0.2
2017-Nov-14 05:56N 48°36' W 122°34'0 0.1
2017-Nov-14 05:08N 48°36' W 122°34'0 0.2
2017-Nov-14 04:56N 48°36' W 122°34'0 0.0
2017-Nov-14 04:26N 48°36' W 122°34'0 0.1
2017-Nov-14 03:56N 48°36' W 122°34'0 0.2
2017-Nov-14 03:26N 48°36' W 122°34'0 0.0
2017-Nov-14 02:56N 48°36' W 122°34'0 0.0
2017-Nov-14 02:26N 48°36' W 122°34'0 0.1
2017-Nov-14 01:50N 48°36' W 122°34'0 0.1
2017-Nov-14 01:26N 48°36' W 122°34'0 0.1
2017-Nov-14 00:56N 48°36' W 122°34'0 0.0
2017-Nov-13 22:56N 48°36' W 122°34'0 0.1
2017-Nov-13 22:26N 48°36' W 122°34'0 0.0
2017-Nov-13 21:50N 48°36' W 122°34'25 1.3
2017-Nov-13 02:00N 48°19' W 123°01'713.5
2017-Nov-13 01:29N 48°15' W 123°10'612.8
2017-Nov-13 01:01N 48°11' W 123°17'611.5
2017-Nov-13 00:30N 48°08' W 123°24'1 1.4
2017-Nov-13 00:00N 48°08' W 123°25'0 0.0
2017-Nov-12 22:20N 48°08' W 123°25'0 0.0
2017-Nov-12 21:47N 48°08' W 123°25'0 0.0
2017-Nov-12 21:20N 48°08' W 123°25'0 0.0
2017-Nov-12 19:35N 48°08' W 123°25'0 0.2
2017-Nov-12 19:20N 48°08' W 123°25'0 0.0
2017-Nov-12 18:53N 48°08' W 123°25'0 0.0
2017-Nov-12 16:53N 48°08' W 123°25'0 0.0
2017-Nov-12 16:11N 48°08' W 123°25'0 0.0
2017-Nov-12 15:50N 48°08' W 123°25'0 0.2
2017-Nov-12 15:26N 48°08' W 123°25'0 0.2
2017-Nov-12 14:42N 48°08' W 123°25'0 0.6
2017-Nov-12 14:30N 48°08' W 123°25'2 4.2
2017-Nov-12 14:00N 48°09' W 123°22'4 7.7
2017-Nov-12 13:30N 48°11' W 123°27'5 9.6
2017-Nov-12 13:00N 48°13' W 123°34'510.0
2017-Nov-12 12:30N 48°13' W 123°41'510.1
2017-Nov-12 12:00N 48°13' W 123°49'5 9.9
2017-Nov-12 11:30N 48°13' W 123°56'510.3
2017-Nov-12 11:00N 48°15' W 124°03'510.9
2017-Nov-12 10:30N 48°18' W 124°10'612.5
2017-Nov-12 10:00N 48°20' W 124°19'713.1
2017-Nov-12 09:30N 48°23' W 124°28'713.2
2017-Nov-12 09:00N 48°26' W 124°37'713.5
2017-Nov-12 08:30N 48°29' W 124°46'713.8
2017-Nov-12 08:00N 48°29' W 124°57'612.9
2017-Nov-12 07:30N 48°24' W 125°03'714.9
2017-Nov-12 07:00N 48°18' W 125°09'914.5
2017-Nov-12 06:23N 48°10' W 125°15'10112.4
2017-Nov-11 22:17N 46°29' W 125°16'413.5
2017-Nov-11 22:00N 46°27' W 125°12'612.1
2017-Nov-11 21:31N 46°24' W 125°04'3 5.3
2017-Nov-11 21:00N 46°23' W 125°01'612.9
2017-Nov-11 20:30N 46°20' W 124°53'714.3
2017-Nov-11 20:00N 46°17' W 124°44'714.3
2017-Nov-11 19:31N 46°13' W 124°35'714.0
2017-Nov-11 19:00N 46°11' W 124°25'713.9
2017-Nov-11 18:30N 46°11' W 124°15'4 8.1
2017-Nov-11 18:01N 46°12' W 124°10'612.5
2017-Nov-11 17:31N 46°16' W 124°02'713.9
2017-Nov-11 17:00N 46°11' W 123°54'5 9.0
2017-Nov-11 16:30N 46°12' W 123°48'611.8
2017-Nov-11 16:00N 46°15' W 123°40'612.6
2017-Nov-11 15:30N 46°16' W 123°31'710.0
2017-Nov-11 14:47N 46°10' W 123°25'410.7
2017-Nov-11 14:22N 46°09' W 123°19'513.4
2017-Nov-11 14:00N 46°10' W 123°12'612.6
2017-Nov-11 13:30N 46°09' W 123°03'612.8
2017-Nov-11 13:01N 46°06' W 122°56'611.7
2017-Nov-11 12:30N 46°01' W 122°51'611.8
2017-Nov-11 12:01N 45°55' W 122°48'612.7
2017-Nov-11 11:30N 45°49' W 122°48'713.8
2017-Nov-11 11:00N 45°42' W 122°46'5 9.4
2017-Nov-11 10:30N 45°38' W 122°48'4 7.4
2017-Nov-11 10:01N 45°34' W 122°45'0 0.4
2017-Nov-11 08:43N 45°34' W 122°44'0 0.0
2017-Nov-11 08:01N 45°34' W 122°44'0 0.0
2017-Nov-11 07:58N 45°34' W 122°44'0 0.0
2017-Nov-11 07:19N 45°34' W 122°44'0 0.0
2017-Nov-11 06:55N 45°34' W 122°44'0 0.0
2017-Nov-11 06:28N 45°34' W 122°44'0 0.0
2017-Nov-11 05:52N 45°34' W 122°44'0 0.0
2017-Nov-11 05:28N 45°34' W 122°44'0 0.0
2017-Nov-11 04:55N 45°34' W 122°44'0 0.0
2017-Nov-11 04:25N 45°34' W 122°44'0 0.0
2017-Nov-11 03:43N 45°34' W 122°44'0 0.0
2017-Nov-11 03:25N 45°34' W 122°44'0 0.0
2017-Nov-11 02:55N 45°34' W 122°44'0 0.0
2017-Nov-11 02:25N 45°34' W 122°44'0 0.0
2017-Nov-11 01:19N 45°34' W 122°44'0 0.0
2017-Nov-11 00:46N 45°34' W 122°44'0 0.0
2017-Nov-11 00:22N 45°34' W 122°44'0 0.0
2017-Nov-10 23:55N 45°34' W 122°44'0 0.0
2017-Nov-10 23:22N 45°34' W 122°44'0 0.0
2017-Nov-10 22:52N 45°34' W 122°44'0 0.0
2017-Nov-10 22:28N 45°34' W 122°44'0 0.0
2017-Nov-10 21:31N 45°34' W 122°44'0 0.0
2017-Nov-10 21:25N 45°34' W 122°44'0 0.0
2017-Nov-10 20:55N 45°34' W 122°44'0 0.0
2017-Nov-10 20:28N 45°34' W 122°44'0 0.0
2017-Nov-10 19:49N 45°34' W 122°44'0 0.0
2017-Nov-10 19:25N 45°34' W 122°44'0 0.0
2017-Nov-10 18:58N 45°34' W 122°44'0 0.0
2017-Nov-10 17:55N 45°34' W 122°44'0 0.0
2017-Nov-10 17:19N 45°34' W 122°44'0 0.0
2017-Nov-10 16:55N 45°34' W 122°44'0 0.0
2017-Nov-10 15:55N 45°34' W 122°44'0 0.0
2017-Nov-10 15:13N 45°34' W 122°44'0 0.0
2017-Nov-10 14:49N 45°34' W 122°44'0 0.0
2017-Nov-10 14:25N 45°34' W 122°44'0 0.0
2017-Nov-10 13:49N 45°34' W 122°44'0 0.0
2017-Nov-10 13:19N 45°34' W 122°44'0 0.0
2017-Nov-10 12:55N 45°34' W 122°44'0 0.0
2017-Nov-10 12:25N 45°34' W 122°44'0 0.3
2017-Nov-10 12:01N 45°34' W 122°44'2 3.3
2017-Nov-10 11:30N 45°35' W 122°46'3 6.7
2017-Nov-10 11:00N 45°38' W 122°47'3 5.3
2017-Nov-10 10:31N 45°38' W 122°43'1 0.7
2017-Nov-10 09:40N 45°38' W 122°42'0 0.0
2017-Nov-10 09:28N 45°38' W 122°42'0 0.0
2017-Nov-10 08:55N 45°38' W 122°42'0 0.0
2017-Nov-10 08:25N 45°38' W 122°42'0 0.0
2017-Nov-10 07:58N 45°38' W 122°42'0 0.0
2017-Nov-10 07:28N 45°38' W 122°42'0 0.0
2017-Nov-10 06:52N 45°38' W 122°42'0 0.0
2017-Nov-10 06:22N 45°38' W 122°42'0 0.0
2017-Nov-10 05:58N 45°38' W 122°42'0 0.0
2017-Nov-10 05:22N 45°38' W 122°42'0 0.0
2017-Nov-10 04:46N 45°38' W 122°42'0 0.0
2017-Nov-10 04:28N 45°38' W 122°42'0 0.0
2017-Nov-10 03:55N 45°38' W 122°42'0 0.0
2017-Nov-10 03:16N 45°38' W 122°42'0 0.0
2017-Nov-10 02:55N 45°38' W 122°42'0 0.0
2017-Nov-10 02:07N 45°38' W 122°42'0 0.0
2017-Nov-10 01:37N 45°38' W 122°42'0 0.0
2017-Nov-10 01:25N 45°38' W 122°42'0 0.0
2017-Nov-10 00:46N 45°38' W 122°42'0 0.0
2017-Nov-10 00:28N 45°38' W 122°42'0 0.0
2017-Nov-09 23:58N 45°38' W 122°42'0 0.0
2017-Nov-09 23:28N 45°38' W 122°42'0 0.0
2017-Nov-09 22:49N 45°38' W 122°42'0 0.0
2017-Nov-09 22:28N 45°38' W 122°42'0 0.0
2017-Nov-09 21:52N 45°38' W 122°42'0 0.0
2017-Nov-09 21:25N 45°38' W 122°42'0 0.0
2017-Nov-09 20:58N 45°38' W 122°42'0 0.0
2017-Nov-09 20:28N 45°38' W 122°42'0 0.0
2017-Nov-09 19:58N 45°38' W 122°42'0 0.0
2017-Nov-09 19:28N 45°38' W 122°42'0 0.0
2017-Nov-09 18:58N 45°38' W 122°42'0 0.0
2017-Nov-09 18:22N 45°38' W 122°42'0 0.0
2017-Nov-09 17:52N 45°38' W 122°42'0 0.0
2017-Nov-09 17:28N 45°38' W 122°42'0 0.0
2017-Nov-09 16:58N 45°38' W 122°42'0 0.0
2017-Nov-09 16:28N 45°38' W 122°42'0 0.0
2017-Nov-09 15:58N 45°38' W 122°42'0 0.0
2017-Nov-09 15:28N 45°38' W 122°42'0 0.0
2017-Nov-09 14:55N 45°38' W 122°42'0 0.0
2017-Nov-09 14:28N 45°38' W 122°42'0 0.0
2017-Nov-09 13:46N 45°38' W 122°42'0 0.0
2017-Nov-09 13:19N 45°38' W 122°42'0 0.0
2017-Nov-09 12:49N 45°38' W 122°42'0 0.0
2017-Nov-09 12:10N 45°38' W 122°42'0 0.0
2017-Nov-09 11:58N 45°38' W 122°42'0 0.0
2017-Nov-09 11:19N 45°38' W 122°42'0 0.0
2017-Nov-09 10:58N 45°38' W 122°42'0 0.0
2017-Nov-09 10:19N 45°38' W 122°42'0 0.0
2017-Nov-09 09:58N 45°38' W 122°42'0 0.0
2017-Nov-09 09:16N 45°38' W 122°42'0 0.0
2017-Nov-09 08:58N 45°38' W 122°42'0 0.0
2017-Nov-09 08:16N 45°38' W 122°42'0 0.0
2017-Nov-09 07:55N 45°38' W 122°42'0 0.0
2017-Nov-09 07:22N 45°38' W 122°42'0 0.0
2017-Nov-09 06:55N 45°38' W 122°42'0 0.0
2017-Nov-09 06:25N 45°38' W 122°42'0 0.0
2017-Nov-09 05:40N 45°38' W 122°42'0 0.0
2017-Nov-09 05:25N 45°38' W 122°42'0 0.0
2017-Nov-09 04:58N 45°38' W 122°42'0 0.0
2017-Nov-09 04:28N 45°38' W 122°42'0 0.0
2017-Nov-09 03:52N 45°38' W 122°42'0 0.0
2017-Nov-09 03:28N 45°38' W 122°42'0 0.0
2017-Nov-09 02:58N 45°38' W 122°42'0 0.0
2017-Nov-09 02:25N 45°38' W 122°42'0 0.0
2017-Nov-09 01:52N 45°38' W 122°42'0 0.0
2017-Nov-09 01:28N 45°38' W 122°42'0 0.0
2017-Nov-09 00:19N 45°38' W 122°42'0 0.0
2017-Nov-08 23:52N 45°38' W 122°42'0 0.0
2017-Nov-08 23:26N 45°38' W 122°42'0 0.3
2017-Nov-08 23:00N 45°38' W 122°42'3 5.2
2017-Nov-08 22:30N 45°39' W 122°46'4 7.3
2017-Nov-08 22:00N 45°36' W 122°47'2 4.6
2017-Nov-08 21:30N 45°34' W 122°44'0 0.3
2017-Nov-08 21:00N 45°34' W 122°44'0 0.0
2017-Nov-08 20:30N 45°34' W 122°44'0 0.0
2017-Nov-08 19:58N 45°34' W 122°44'0 0.0
2017-Nov-08 19:25N 45°34' W 122°44'0 0.0
2017-Nov-08 18:58N 45°34' W 122°44'0 0.0
2017-Nov-08 18:07N 45°34' W 122°44'0 0.0
2017-Nov-08 17:58N 45°34' W 122°44'0 0.0
2017-Nov-08 17:28N 45°34' W 122°44'0 0.0
2017-Nov-08 16:58N 45°34' W 122°44'0 0.0
2017-Nov-08 16:25N 45°34' W 122°44'0 0.0
2017-Nov-08 15:58N 45°34' W 122°44'0 0.0
2017-Nov-08 15:25N 45°34' W 122°44'0 0.0
2017-Nov-08 14:55N 45°34' W 122°44'0 0.0
2017-Nov-08 14:01N 45°34' W 122°44'0 0.1
2017-Nov-08 13:55N 45°34' W 122°44'0 0.0
2017-Nov-08 13:16N 45°34' W 122°44'0 0.0
2017-Nov-08 12:58N 45°34' W 122°44'0 0.0
2017-Nov-08 12:25N 45°34' W 122°44'0 0.0
2017-Nov-08 11:55N 45°34' W 122°44'0 0.0
2017-Nov-08 11:19N 45°34' W 122°44'0 0.0
2017-Nov-08 10:58N 45°34' W 122°44'0 0.0
2017-Nov-08 10:25N 45°34' W 122°44'0 0.0
2017-Nov-08 09:52N 45°34' W 122°44'0 0.0
2017-Nov-08 09:28N 45°34' W 122°44'0 0.0
2017-Nov-08 08:52N 45°34' W 122°44'0 0.0
2017-Nov-08 08:25N 45°34' W 122°44'0 0.0
2017-Nov-08 07:52N 45°34' W 122°44'0 0.0
2017-Nov-08 07:28N 45°34' W 122°44'0 0.0
2017-Nov-08 06:55N 45°34' W 122°44'0 0.0
2017-Nov-08 06:16N 45°34' W 122°44'0 0.0
2017-Nov-08 05:58N 45°34' W 122°44'0 0.0
2017-Nov-08 05:22N 45°34' W 122°44'0 0.0
2017-Nov-08 04:58N 45°34' W 122°44'0 0.1
2017-Nov-08 04:30N 45°34' W 122°44'  

Dump ship's entire track history